sensor_id;sensor_type;location;lat;lon;timestamp;P1;durP1;ratioP1;P2;durP2;ratioP2
7191;SDS011;3637;51.494;11.958;2022-08-19T00:02:22;13.40;;;10.47;;
7191;SDS011;3637;51.494;11.958;2022-08-19T00:05:24;13.77;;;10.60;;
7191;SDS011;3637;51.494;11.958;2022-08-19T00:08:26;13.57;;;10.77;;
7191;SDS011;3637;51.494;11.958;2022-08-19T00:11:28;13.93;;;10.10;;
7191;SDS011;3637;51.494;11.958;2022-08-19T00:14:30;13.83;;;10.47;;
7191;SDS011;3637;51.494;11.958;2022-08-19T00:17:34;13.97;;;11.13;;
7191;SDS011;3637;51.494;11.958;2022-08-19T00:20:35;14.03;;;10.80;;
7191;SDS011;3637;51.494;11.958;2022-08-19T00:23:38;14.30;;;10.77;;
7191;SDS011;3637;51.494;11.958;2022-08-19T00:26:40;16.23;;;11.57;;
7191;SDS011;3637;51.494;11.958;2022-08-19T00:29:43;13.63;;;11.27;;
7191;SDS011;3637;51.494;11.958;2022-08-19T00:32:46;14.87;;;11.07;;
7191;SDS011;3637;51.494;11.958;2022-08-19T00:35:48;14.43;;;10.83;;
7191;SDS011;3637;51.494;11.958;2022-08-19T00:38:50;18.90;;;12.47;;
7191;SDS011;3637;51.494;11.958;2022-08-19T00:41:52;17.07;;;11.60;;
7191;SDS011;3637;51.494;11.958;2022-08-19T00:44:54;13.47;;;10.70;;
7191;SDS011;3637;51.494;11.958;2022-08-19T00:47:58;13.93;;;11.70;;
7191;SDS011;3637;51.494;11.958;2022-08-19T00:51:04;14.17;;;10.50;;
7191;SDS011;3637;51.494;11.958;2022-08-19T00:54:06;15.43;;;11.53;;
7191;SDS011;3637;51.494;11.958;2022-08-19T00:57:10;15.00;;;11.67;;
7191;SDS011;3637;51.494;11.958;2022-08-19T01:00:17;15.03;;;11.90;;
7191;SDS011;3637;51.494;11.958;2022-08-19T01:03:21;16.03;;;11.20;;
7191;SDS011;3637;51.494;11.958;2022-08-19T01:06:23;16.80;;;11.03;;
7191;SDS011;3637;51.494;11.958;2022-08-19T01:09:26;14.57;;;10.70;;
7191;SDS011;3637;51.494;11.958;2022-08-19T01:12:28;15.20;;;11.57;;
7191;SDS011;3637;51.494;11.958;2022-08-19T01:15:31;13.57;;;11.30;;
7191;SDS011;3637;51.494;11.958;2022-08-19T01:18:36;14.13;;;11.00;;
7191;SDS011;3637;51.494;11.958;2022-08-19T01:21:42;16.60;;;11.67;;
7191;SDS011;3637;51.494;11.958;2022-08-19T01:24:50;14.83;;;11.93;;
7191;SDS011;3637;51.494;11.958;2022-08-19T01:27:53;15.23;;;11.33;;
7191;SDS011;3637;51.494;11.958;2022-08-19T01:30:55;18.20;;;11.47;;
7191;SDS011;3637;51.494;11.958;2022-08-19T01:33:57;15.27;;;11.70;;
7191;SDS011;3637;51.494;11.958;2022-08-19T01:36:59;15.90;;;11.67;;
7191;SDS011;3637;51.494;11.958;2022-08-19T01:40:10;16.03;;;12.40;;
7191;SDS011;3637;51.494;11.958;2022-08-19T01:43:12;16.03;;;12.30;;
7191;SDS011;3637;51.494;11.958;2022-08-19T01:46:14;14.73;;;12.10;;
7191;SDS011;3637;51.494;11.958;2022-08-19T01:49:16;16.73;;;13.03;;
7191;SDS011;3637;51.494;11.958;2022-08-19T01:52:20;16.80;;;12.07;;
7191;SDS011;3637;51.494;11.958;2022-08-19T01:55:23;18.10;;;12.87;;
7191;SDS011;3637;51.494;11.958;2022-08-19T01:58:27;17.07;;;12.33;;
7191;SDS011;3637;51.494;11.958;2022-08-19T02:01:31;14.23;;;12.03;;
7191;SDS011;3637;51.494;11.958;2022-08-19T02:04:34;17.47;;;13.20;;
7191;SDS011;3637;51.494;11.958;2022-08-19T02:07:38;18.80;;;13.10;;
7191;SDS011;3637;51.494;11.958;2022-08-19T02:10:42;17.53;;;13.23;;
7191;SDS011;3637;51.494;11.958;2022-08-19T02:13:44;18.20;;;13.57;;
7191;SDS011;3637;51.494;11.958;2022-08-19T02:16:46;18.67;;;13.67;;
7191;SDS011;3637;51.494;11.958;2022-08-19T02:19:48;17.23;;;13.43;;
7191;SDS011;3637;51.494;11.958;2022-08-19T02:22:50;18.70;;;13.10;;
7191;SDS011;3637;51.494;11.958;2022-08-19T02:25:53;18.43;;;13.80;;
7191;SDS011;3637;51.494;11.958;2022-08-19T02:28:55;18.73;;;14.43;;
7191;SDS011;3637;51.494;11.958;2022-08-19T02:31:57;21.47;;;14.57;;
7191;SDS011;3637;51.494;11.958;2022-08-19T02:34:59;19.00;;;13.83;;
7191;SDS011;3637;51.494;11.958;2022-08-19T02:38:01;19.27;;;14.83;;
7191;SDS011;3637;51.494;11.958;2022-08-19T02:41:23;19.70;;;14.23;;
7191;SDS011;3637;51.494;11.958;2022-08-19T02:44:26;19.43;;;15.47;;
7191;SDS011;3637;51.494;11.958;2022-08-19T02:47:29;22.33;;;15.40;;
7191;SDS011;3637;51.494;11.958;2022-08-19T02:50:31;21.30;;;15.70;;
7191;SDS011;3637;51.494;11.958;2022-08-19T02:53:33;20.33;;;15.03;;
7191;SDS011;3637;51.494;11.958;2022-08-19T02:56:37;19.20;;;15.07;;
7191;SDS011;3637;51.494;11.958;2022-08-19T02:59:41;20.50;;;15.73;;
7191;SDS011;3637;51.494;11.958;2022-08-19T03:02:43;22.70;;;16.53;;
7191;SDS011;3637;51.494;11.958;2022-08-19T03:05:47;21.67;;;15.50;;
7191;SDS011;3637;51.494;11.958;2022-08-19T03:08:49;22.40;;;15.27;;
7191;SDS011;3637;51.494;11.958;2022-08-19T03:11:53;21.40;;;14.77;;
7191;SDS011;3637;51.494;11.958;2022-08-19T03:14:55;20.47;;;14.83;;
7191;SDS011;3637;51.494;11.958;2022-08-19T03:17:57;21.60;;;15.80;;
7191;SDS011;3637;51.494;11.958;2022-08-19T03:20:59;19.20;;;14.90;;
7191;SDS011;3637;51.494;11.958;2022-08-19T03:24:01;24.10;;;16.87;;
7191;SDS011;3637;51.494;11.958;2022-08-19T03:27:07;22.83;;;16.23;;
7191;SDS011;3637;51.494;11.958;2022-08-19T03:30:10;21.70;;;16.23;;
7191;SDS011;3637;51.494;11.958;2022-08-19T03:33:13;22.20;;;16.03;;
7191;SDS011;3637;51.494;11.958;2022-08-19T03:36:16;24.23;;;17.30;;
7191;SDS011;3637;51.494;11.958;2022-08-19T03:39:20;21.63;;;16.33;;
7191;SDS011;3637;51.494;11.958;2022-08-19T03:42:24;24.80;;;16.07;;
7191;SDS011;3637;51.494;11.958;2022-08-19T03:45:27;21.90;;;16.17;;
7191;SDS011;3637;51.494;11.958;2022-08-19T03:48:29;22.07;;;15.53;;
7191;SDS011;3637;51.494;11.958;2022-08-19T03:51:32;24.60;;;17.27;;
7191;SDS011;3637;51.494;11.958;2022-08-19T03:54:35;21.37;;;16.00;;
7191;SDS011;3637;51.494;11.958;2022-08-19T03:57:39;21.70;;;16.33;;
7191;SDS011;3637;51.494;11.958;2022-08-19T04:00:41;21.70;;;16.57;;
7191;SDS011;3637;51.494;11.958;2022-08-19T04:03:44;21.43;;;15.70;;
7191;SDS011;3637;51.494;11.958;2022-08-19T04:06:46;21.17;;;16.40;;
7191;SDS011;3637;51.494;11.958;2022-08-19T04:09:48;21.63;;;16.47;;
7191;SDS011;3637;51.494;11.958;2022-08-19T04:12:53;22.87;;;17.20;;
7191;SDS011;3637;51.494;11.958;2022-08-19T04:15:55;22.80;;;17.53;;
7191;SDS011;3637;51.494;11.958;2022-08-19T04:18:59;25.40;;;17.60;;
7191;SDS011;3637;51.494;11.958;2022-08-19T04:22:03;21.93;;;17.40;;
7191;SDS011;3637;51.494;11.958;2022-08-19T04:25:05;19.70;;;16.17;;
7191;SDS011;3637;51.494;11.958;2022-08-19T04:28:09;22.77;;;16.93;;
7191;SDS011;3637;51.494;11.958;2022-08-19T04:31:13;24.93;;;16.93;;
7191;SDS011;3637;51.494;11.958;2022-08-19T04:34:17;23.83;;;16.93;;
7191;SDS011;3637;51.494;11.958;2022-08-19T04:37:22;21.90;;;16.13;;
7191;SDS011;3637;51.494;11.958;2022-08-19T04:40:26;21.67;;;16.33;;
7191;SDS011;3637;51.494;11.958;2022-08-19T04:43:47;22.60;;;16.77;;
7191;SDS011;3637;51.494;11.958;2022-08-19T04:46:50;22.23;;;16.23;;
7191;SDS011;3637;51.494;11.958;2022-08-19T04:49:52;22.37;;;16.10;;
7191;SDS011;3637;51.494;11.958;2022-08-19T04:52:54;21.93;;;15.70;;
7191;SDS011;3637;51.494;11.958;2022-08-19T04:55:56;21.97;;;15.70;;
7191;SDS011;3637;51.494;11.958;2022-08-19T04:59:02;20.97;;;15.63;;
7191;SDS011;3637;51.494;11.958;2022-08-19T05:02:04;18.50;;;14.53;;
7191;SDS011;3637;51.494;11.958;2022-08-19T05:05:07;21.37;;;14.90;;
7191;SDS011;3637;51.494;11.958;2022-08-19T05:08:10;21.27;;;14.83;;
7191;SDS011;3637;51.494;11.958;2022-08-19T05:11:14;18.73;;;14.47;;
7191;SDS011;3637;51.494;11.958;2022-08-19T05:14:21;20.50;;;15.43;;
7191;SDS011;3637;51.494;11.958;2022-08-19T05:17:23;23.40;;;15.70;;
7191;SDS011;3637;51.494;11.958;2022-08-19T05:20:25;19.00;;;14.37;;
7191;SDS011;3637;51.494;11.958;2022-08-19T05:23:44;18.63;;;14.33;;
7191;SDS011;3637;51.494;11.958;2022-08-19T05:26:46;22.77;;;15.43;;
7191;SDS011;3637;51.494;11.958;2022-08-19T05:29:51;20.27;;;14.07;;
7191;SDS011;3637;51.494;11.958;2022-08-19T05:32:52;22.70;;;15.23;;
7191;SDS011;3637;51.494;11.958;2022-08-19T05:35:55;21.40;;;14.67;;
7191;SDS011;3637;51.494;11.958;2022-08-19T05:38:58;20.80;;;13.53;;
7191;SDS011;3637;51.494;11.958;2022-08-19T05:42:01;18.07;;;14.10;;
7191;SDS011;3637;51.494;11.958;2022-08-19T05:45:07;17.63;;;12.97;;
7191;SDS011;3637;51.494;11.958;2022-08-19T05:48:10;18.93;;;12.50;;
7191;SDS011;3637;51.494;11.958;2022-08-19T05:51:12;17.63;;;12.63;;
7191;SDS011;3637;51.494;11.958;2022-08-19T05:54:16;17.57;;;12.27;;
7191;SDS011;3637;51.494;11.958;2022-08-19T05:57:19;16.17;;;12.00;;
7191;SDS011;3637;51.494;11.958;2022-08-19T06:00:22;12.90;;;10.30;;
7191;SDS011;3637;51.494;11.958;2022-08-19T06:03:24;15.10;;;11.40;;
7191;SDS011;3637;51.494;11.958;2022-08-19T06:06:26;16.17;;;11.40;;
7191;SDS011;3637;51.494;11.958;2022-08-19T06:09:28;14.37;;;10.77;;
7191;SDS011;3637;51.494;11.958;2022-08-19T06:12:30;18.90;;;11.20;;
7191;SDS011;3637;51.494;11.958;2022-08-19T06:15:35;14.53;;;11.10;;
7191;SDS011;3637;51.494;11.958;2022-08-19T06:18:37;13.83;;;10.37;;
7191;SDS011;3637;51.494;11.958;2022-08-19T06:21:40;15.07;;;10.40;;
7191;SDS011;3637;51.494;11.958;2022-08-19T06:24:43;11.93;;;9.53;;
7191;SDS011;3637;51.494;11.958;2022-08-19T06:27:46;12.53;;;9.07;;
7191;SDS011;3637;51.494;11.958;2022-08-19T06:30:49;11.57;;;9.07;;
7191;SDS011;3637;51.494;11.958;2022-08-19T06:33:51;11.33;;;9.53;;
7191;SDS011;3637;51.494;11.958;2022-08-19T06:36:53;14.23;;;8.87;;
7191;SDS011;3637;51.494;11.958;2022-08-19T06:39:56;12.10;;;9.13;;
7191;SDS011;3637;51.494;11.958;2022-08-19T06:42:58;13.07;;;8.80;;
7191;SDS011;3637;51.494;11.958;2022-08-19T06:46:03;9.60;;;7.93;;
7191;SDS011;3637;51.494;11.958;2022-08-19T06:49:10;9.37;;;7.60;;
7191;SDS011;3637;51.494;11.958;2022-08-19T06:52:13;11.77;;;8.37;;
7191;SDS011;3637;51.494;11.958;2022-08-19T06:55:16;10.87;;;8.27;;
7191;SDS011;3637;51.494;11.958;2022-08-19T06:58:18;10.60;;;8.40;;
7191;SDS011;3637;51.494;11.958;2022-08-19T07:01:21;10.37;;;8.40;;
7191;SDS011;3637;51.494;11.958;2022-08-19T07:04:23;10.97;;;8.03;;
7191;SDS011;3637;51.494;11.958;2022-08-19T07:07:26;11.33;;;8.30;;
7191;SDS011;3637;51.494;11.958;2022-08-19T07:10:28;10.97;;;7.93;;
7191;SDS011;3637;51.494;11.958;2022-08-19T07:13:32;11.27;;;8.40;;
7191;SDS011;3637;51.494;11.958;2022-08-19T07:16:37;10.70;;;8.20;;
7191;SDS011;3637;51.494;11.958;2022-08-19T07:19:39;11.20;;;8.60;;
7191;SDS011;3637;51.494;11.958;2022-08-19T07:22:42;11.77;;;8.37;;
7191;SDS011;3637;51.494;11.958;2022-08-19T07:25:45;11.73;;;8.70;;
7191;SDS011;3637;51.494;11.958;2022-08-19T07:28:47;11.33;;;8.17;;
7191;SDS011;3637;51.494;11.958;2022-08-19T07:31:51;13.40;;;9.10;;
7191;SDS011;3637;51.494;11.958;2022-08-19T07:34:56;9.83;;;7.83;;
7191;SDS011;3637;51.494;11.958;2022-08-19T07:37:58;10.53;;;7.93;;
7191;SDS011;3637;51.494;11.958;2022-08-19T07:41:03;12.53;;;8.30;;
7191;SDS011;3637;51.494;11.958;2022-08-19T07:44:05;10.43;;;8.17;;
7191;SDS011;3637;51.494;11.958;2022-08-19T07:47:09;10.00;;;8.13;;
7191;SDS011;3637;51.494;11.958;2022-08-19T07:50:12;9.77;;;7.90;;
7191;SDS011;3637;51.494;11.958;2022-08-19T07:53:14;11.70;;;8.43;;
7191;SDS011;3637;51.494;11.958;2022-08-19T07:56:17;9.53;;;7.87;;
7191;SDS011;3637;51.494;11.958;2022-08-19T07:59:20;10.47;;;7.50;;
7191;SDS011;3637;51.494;11.958;2022-08-19T08:02:24;10.73;;;7.90;;
7191;SDS011;3637;51.494;11.958;2022-08-19T08:05:26;13.53;;;8.23;;
7191;SDS011;3637;51.494;11.958;2022-08-19T08:08:45;12.17;;;8.40;;
7191;SDS011;3637;51.494;11.958;2022-08-19T08:12:05;9.53;;;7.77;;
7191;SDS011;3637;51.494;11.958;2022-08-19T08:15:11;9.93;;;7.60;;
7191;SDS011;3637;51.494;11.958;2022-08-19T08:18:17;9.70;;;7.57;;
7191;SDS011;3637;51.494;11.958;2022-08-19T08:21:20;10.23;;;7.80;;
7191;SDS011;3637;51.494;11.958;2022-08-19T08:24:22;9.77;;;7.00;;
7191;SDS011;3637;51.494;11.958;2022-08-19T08:27:25;9.97;;;7.83;;
7191;SDS011;3637;51.494;11.958;2022-08-19T08:30:29;8.47;;;7.40;;
7191;SDS011;3637;51.494;11.958;2022-08-19T08:33:34;11.93;;;7.47;;
7191;SDS011;3637;51.494;11.958;2022-08-19T08:36:36;7.97;;;6.90;;
7191;SDS011;3637;51.494;11.958;2022-08-19T08:39:40;10.63;;;7.23;;
7191;SDS011;3637;51.494;11.958;2022-08-19T08:42:44;9.63;;;7.27;;
7191;SDS011;3637;51.494;11.958;2022-08-19T08:45:57;9.70;;;6.83;;
7191;SDS011;3637;51.494;11.958;2022-08-19T08:49:06;7.97;;;6.90;;
7191;SDS011;3637;51.494;11.958;2022-08-19T08:52:19;10.73;;;6.83;;
7191;SDS011;3637;51.494;11.958;2022-08-19T08:55:25;10.70;;;7.13;;
7191;SDS011;3637;51.494;11.958;2022-08-19T08:58:31;8.60;;;6.23;;
7191;SDS011;3637;51.494;11.958;2022-08-19T09:01:42;8.63;;;6.60;;
7191;SDS011;3637;51.494;11.958;2022-08-19T09:04:46;8.90;;;6.33;;
7191;SDS011;3637;51.494;11.958;2022-08-19T09:07:49;8.00;;;6.73;;
7191;SDS011;3637;51.494;11.958;2022-08-19T09:10:59;8.10;;;6.73;;
7191;SDS011;3637;51.494;11.958;2022-08-19T09:14:07;9.37;;;6.70;;
7191;SDS011;3637;51.494;11.958;2022-08-19T09:17:14;7.63;;;6.77;;
7191;SDS011;3637;51.494;11.958;2022-08-19T09:20:19;8.23;;;6.47;;
7191;SDS011;3637;51.494;11.958;2022-08-19T09:23:23;9.80;;;6.10;;
7191;SDS011;3637;51.494;11.958;2022-08-19T09:26:25;7.43;;;6.40;;
7191;SDS011;3637;51.494;11.958;2022-08-19T09:29:27;8.10;;;6.50;;
7191;SDS011;3637;51.494;11.958;2022-08-19T09:32:30;7.97;;;6.17;;
7191;SDS011;3637;51.494;11.958;2022-08-19T09:35:33;7.27;;;6.00;;
7191;SDS011;3637;51.494;11.958;2022-08-19T09:38:36;7.70;;;6.50;;
7191;SDS011;3637;51.494;11.958;2022-08-19T09:41:41;8.07;;;6.60;;
7191;SDS011;3637;51.494;11.958;2022-08-19T09:44:43;9.20;;;6.37;;
7191;SDS011;3637;51.494;11.958;2022-08-19T09:47:45;10.40;;;6.63;;
7191;SDS011;3637;51.494;11.958;2022-08-19T09:50:49;6.97;;;5.70;;
7191;SDS011;3637;51.494;11.958;2022-08-19T09:53:51;8.87;;;6.73;;
7191;SDS011;3637;51.494;11.958;2022-08-19T09:56:55;7.90;;;6.53;;
7191;SDS011;3637;51.494;11.958;2022-08-19T10:00:00;6.57;;;5.70;;
7191;SDS011;3637;51.494;11.958;2022-08-19T10:03:02;7.33;;;5.93;;
7191;SDS011;3637;51.494;11.958;2022-08-19T10:06:05;7.47;;;5.87;;
7191;SDS011;3637;51.494;11.958;2022-08-19T10:09:09;7.20;;;5.63;;
7191;SDS011;3637;51.494;11.958;2022-08-19T10:12:11;8.17;;;6.03;;
7191;SDS011;3637;51.494;11.958;2022-08-19T10:15:15;6.63;;;5.53;;
7191;SDS011;3637;51.494;11.958;2022-08-19T10:18:21;7.90;;;6.23;;
7191;SDS011;3637;51.494;11.958;2022-08-19T10:21:27;6.63;;;5.80;;
7191;SDS011;3637;51.494;11.958;2022-08-19T10:24:31;7.87;;;5.60;;
7191;SDS011;3637;51.494;11.958;2022-08-19T10:27:33;8.63;;;5.93;;
7191;SDS011;3637;51.494;11.958;2022-08-19T10:30:35;7.47;;;5.83;;
7191;SDS011;3637;51.494;11.958;2022-08-19T10:33:37;9.40;;;6.50;;
7191;SDS011;3637;51.494;11.958;2022-08-19T10:36:41;8.30;;;6.53;;
7191;SDS011;3637;51.494;11.958;2022-08-19T10:39:45;7.67;;;6.37;;
7191;SDS011;3637;51.494;11.958;2022-08-19T10:42:47;7.40;;;5.80;;
7191;SDS011;3637;51.494;11.958;2022-08-19T10:45:51;7.47;;;5.70;;
7191;SDS011;3637;51.494;11.958;2022-08-19T10:48:56;8.50;;;5.83;;
7191;SDS011;3637;51.494;11.958;2022-08-19T10:51:59;6.40;;;5.20;;
7191;SDS011;3637;51.494;11.958;2022-08-19T10:55:19;6.77;;;5.30;;
7191;SDS011;3637;51.494;11.958;2022-08-19T10:58:40;6.13;;;5.13;;
7191;SDS011;3637;51.494;11.958;2022-08-19T11:01:44;7.43;;;5.40;;
7191;SDS011;3637;51.494;11.958;2022-08-19T11:04:47;9.30;;;6.10;;
7191;SDS011;3637;51.494;11.958;2022-08-19T11:07:51;7.67;;;5.70;;
7191;SDS011;3637;51.494;11.958;2022-08-19T11:10:53;8.10;;;6.10;;
7191;SDS011;3637;51.494;11.958;2022-08-19T11:14:00;6.20;;;5.57;;
7191;SDS011;3637;51.494;11.958;2022-08-19T11:17:02;9.77;;;6.60;;
7191;SDS011;3637;51.494;11.958;2022-08-19T11:20:05;8.30;;;6.97;;
7191;SDS011;3637;51.494;11.958;2022-08-19T11:23:09;11.33;;;6.17;;
7191;SDS011;3637;51.494;11.958;2022-08-19T11:26:12;8.47;;;6.43;;
7191;SDS011;3637;51.494;11.958;2022-08-19T11:29:15;9.43;;;6.97;;
7191;SDS011;3637;51.494;11.958;2022-08-19T11:32:19;8.03;;;6.03;;
7191;SDS011;3637;51.494;11.958;2022-08-19T11:35:20;8.87;;;6.67;;
7191;SDS011;3637;51.494;11.958;2022-08-19T11:38:24;8.27;;;6.43;;
7191;SDS011;3637;51.494;11.958;2022-08-19T11:41:26;7.00;;;6.27;;
7191;SDS011;3637;51.494;11.958;2022-08-19T11:44:28;6.23;;;5.43;;
7191;SDS011;3637;51.494;11.958;2022-08-19T11:47:31;7.70;;;6.03;;
7191;SDS011;3637;51.494;11.958;2022-08-19T11:50:33;11.47;;;6.23;;
7191;SDS011;3637;51.494;11.958;2022-08-19T11:53:36;9.33;;;7.13;;
7191;SDS011;3637;51.494;11.958;2022-08-19T11:56:39;7.43;;;6.07;;
7191;SDS011;3637;51.494;11.958;2022-08-19T11:59:42;7.83;;;6.47;;
7191;SDS011;3637;51.494;11.958;2022-08-19T12:02:48;7.87;;;6.60;;
7191;SDS011;3637;51.494;11.958;2022-08-19T12:05:50;8.60;;;5.93;;
7191;SDS011;3637;51.494;11.958;2022-08-19T12:08:54;8.90;;;6.83;;
7191;SDS011;3637;51.494;11.958;2022-08-19T12:11:57;7.83;;;6.10;;
7191;SDS011;3637;51.494;11.958;2022-08-19T12:14:59;7.17;;;5.97;;
7191;SDS011;3637;51.494;11.958;2022-08-19T12:18:01;7.20;;;6.13;;
7191;SDS011;3637;51.494;11.958;2022-08-19T12:21:03;7.40;;;6.20;;
7191;SDS011;3637;51.494;11.958;2022-08-19T12:24:07;8.87;;;6.57;;
7191;SDS011;3637;51.494;11.958;2022-08-19T12:27:09;7.37;;;5.87;;
7191;SDS011;3637;51.494;11.958;2022-08-19T12:30:11;7.03;;;5.63;;
7191;SDS011;3637;51.494;11.958;2022-08-19T12:33:14;10.87;;;5.23;;
7191;SDS011;3637;51.494;11.958;2022-08-19T12:36:16;5.70;;;5.00;;
7191;SDS011;3637;51.494;11.958;2022-08-19T12:39:20;9.60;;;5.20;;
7191;SDS011;3637;51.494;11.958;2022-08-19T12:42:21;6.77;;;5.77;;
7191;SDS011;3637;51.494;11.958;2022-08-19T12:45:24;8.40;;;6.13;;
7191;SDS011;3637;51.494;11.958;2022-08-19T12:48:25;6.57;;;5.43;;
7191;SDS011;3637;51.494;11.958;2022-08-19T12:51:29;6.03;;;5.20;;
7191;SDS011;3637;51.494;11.958;2022-08-19T12:54:33;5.60;;;4.90;;
7191;SDS011;3637;51.494;11.958;2022-08-19T12:57:35;6.80;;;5.30;;
7191;SDS011;3637;51.494;11.958;2022-08-19T13:00:38;6.80;;;4.57;;
7191;SDS011;3637;51.494;11.958;2022-08-19T13:03:44;7.80;;;5.50;;
7191;SDS011;3637;51.494;11.958;2022-08-19T13:06:47;5.60;;;4.63;;
7191;SDS011;3637;51.494;11.958;2022-08-19T13:09:52;8.63;;;5.20;;
7191;SDS011;3637;51.494;11.958;2022-08-19T13:12:54;7.20;;;5.80;;
7191;SDS011;3637;51.494;11.958;2022-08-19T13:15:59;7.07;;;5.67;;
7191;SDS011;3637;51.494;11.958;2022-08-19T13:19:03;8.60;;;6.63;;
7191;SDS011;3637;51.494;11.958;2022-08-19T13:22:05;9.17;;;7.37;;
7191;SDS011;3637;51.494;11.958;2022-08-19T13:25:09;11.17;;;8.00;;
7191;SDS011;3637;51.494;11.958;2022-08-19T13:28:12;10.40;;;7.40;;
7191;SDS011;3637;51.494;11.958;2022-08-19T13:31:15;12.10;;;7.60;;
7191;SDS011;3637;51.494;11.958;2022-08-19T13:34:34;11.50;;;8.17;;
7191;SDS011;3637;51.494;11.958;2022-08-19T13:37:37;12.17;;;8.60;;
7191;SDS011;3637;51.494;11.958;2022-08-19T13:40:47;11.23;;;8.70;;
7191;SDS011;3637;51.494;11.958;2022-08-19T13:43:50;12.07;;;9.50;;
7191;SDS011;3637;51.494;11.958;2022-08-19T13:46:52;10.10;;;8.30;;
7191;SDS011;3637;51.494;11.958;2022-08-19T13:49:54;12.80;;;9.13;;
7191;SDS011;3637;51.494;11.958;2022-08-19T13:52:58;11.47;;;8.90;;
7191;SDS011;3637;51.494;11.958;2022-08-19T13:56:02;12.87;;;9.20;;
7191;SDS011;3637;51.494;11.958;2022-08-19T13:59:06;11.73;;;9.20;;
7191;SDS011;3637;51.494;11.958;2022-08-19T14:02:08;11.37;;;8.57;;
7191;SDS011;3637;51.494;11.958;2022-08-19T14:05:12;11.83;;;9.00;;
7191;SDS011;3637;51.494;11.958;2022-08-19T14:08:15;12.40;;;9.10;;
7191;SDS011;3637;51.494;11.958;2022-08-19T14:11:18;11.77;;;9.37;;
7191;SDS011;3637;51.494;11.958;2022-08-19T14:14:22;13.40;;;8.83;;
7191;SDS011;3637;51.494;11.958;2022-08-19T14:17:24;11.77;;;8.83;;
7191;SDS011;3637;51.494;11.958;2022-08-19T14:20:26;12.90;;;9.13;;
7191;SDS011;3637;51.494;11.958;2022-08-19T14:23:28;11.53;;;8.67;;
7191;SDS011;3637;51.494;11.958;2022-08-19T14:26:31;9.97;;;8.27;;
7191;SDS011;3637;51.494;11.958;2022-08-19T14:29:33;13.87;;;9.90;;
7191;SDS011;3637;51.494;11.958;2022-08-19T14:32:35;10.17;;;8.40;;
7191;SDS011;3637;51.494;11.958;2022-08-19T14:35:37;11.33;;;8.13;;
7191;SDS011;3637;51.494;11.958;2022-08-19T14:38:44;11.03;;;8.33;;
7191;SDS011;3637;51.494;11.958;2022-08-19T14:41:48;9.77;;;7.60;;
7191;SDS011;3637;51.494;11.958;2022-08-19T14:44:50;9.73;;;7.90;;
7191;SDS011;3637;51.494;11.958;2022-08-19T14:47:52;10.73;;;7.70;;
7191;SDS011;3637;51.494;11.958;2022-08-19T14:50:55;9.63;;;7.57;;
7191;SDS011;3637;51.494;11.958;2022-08-19T14:53:57;8.57;;;7.63;;
7191;SDS011;3637;51.494;11.958;2022-08-19T14:57:00;9.83;;;7.53;;
7191;SDS011;3637;51.494;11.958;2022-08-19T15:00:03;9.83;;;7.47;;
7191;SDS011;3637;51.494;11.958;2022-08-19T15:03:06;9.37;;;7.30;;
7191;SDS011;3637;51.494;11.958;2022-08-19T15:06:08;7.77;;;6.87;;
7191;SDS011;3637;51.494;11.958;2022-08-19T15:09:10;8.03;;;7.00;;
7191;SDS011;3637;51.494;11.958;2022-08-19T15:12:13;8.33;;;7.03;;
7191;SDS011;3637;51.494;11.958;2022-08-19T15:15:15;9.10;;;7.10;;
7191;SDS011;3637;51.494;11.958;2022-08-19T15:18:19;8.10;;;7.17;;
7191;SDS011;3637;51.494;11.958;2022-08-19T15:21:21;8.13;;;7.07;;
7191;SDS011;3637;51.494;11.958;2022-08-19T15:24:25;6.93;;;6.17;;
7191;SDS011;3637;51.494;11.958;2022-08-19T15:27:28;7.70;;;6.60;;
7191;SDS011;3637;51.494;11.958;2022-08-19T15:30:30;8.07;;;7.13;;
7191;SDS011;3637;51.494;11.958;2022-08-19T15:33:33;8.77;;;7.13;;
7191;SDS011;3637;51.494;11.958;2022-08-19T15:36:37;7.90;;;7.10;;
7191;SDS011;3637;51.494;11.958;2022-08-19T15:39:38;8.30;;;6.80;;
7191;SDS011;3637;51.494;11.958;2022-08-19T15:42:42;8.23;;;6.70;;
7191;SDS011;3637;51.494;11.958;2022-08-19T15:45:44;9.47;;;7.57;;
7191;SDS011;3637;51.494;11.958;2022-08-19T15:48:46;8.53;;;6.83;;
7191;SDS011;3637;51.494;11.958;2022-08-19T15:51:48;7.80;;;7.00;;
7191;SDS011;3637;51.494;11.958;2022-08-19T15:54:52;8.23;;;6.53;;
7191;SDS011;3637;51.494;11.958;2022-08-19T15:57:55;7.30;;;6.37;;
7191;SDS011;3637;51.494;11.958;2022-08-19T16:01:14;7.97;;;6.83;;
7191;SDS011;3637;51.494;11.958;2022-08-19T16:04:33;8.13;;;6.83;;
7191;SDS011;3637;51.494;11.958;2022-08-19T16:07:53;8.13;;;7.30;;
7191;SDS011;3637;51.494;11.958;2022-08-19T16:10:55;8.20;;;7.07;;
7191;SDS011;3637;51.494;11.958;2022-08-19T16:13:58;6.93;;;6.23;;
7191;SDS011;3637;51.494;11.958;2022-08-19T16:17:01;10.07;;;6.43;;
7191;SDS011;3637;51.494;11.958;2022-08-19T16:20:04;9.37;;;7.33;;
7191;SDS011;3637;51.494;11.958;2022-08-19T16:23:07;7.80;;;7.00;;
7191;SDS011;3637;51.494;11.958;2022-08-19T16:26:10;9.37;;;7.63;;
7191;SDS011;3637;51.494;11.958;2022-08-19T16:29:14;8.53;;;7.20;;
7191;SDS011;3637;51.494;11.958;2022-08-19T16:32:18;7.50;;;6.70;;
7191;SDS011;3637;51.494;11.958;2022-08-19T16:35:20;7.80;;;6.57;;
7191;SDS011;3637;51.494;11.958;2022-08-19T16:38:22;7.73;;;6.53;;
7191;SDS011;3637;51.494;11.958;2022-08-19T16:41:24;6.83;;;5.93;;
7191;SDS011;3637;51.494;11.958;2022-08-19T16:44:28;6.93;;;6.23;;
7191;SDS011;3637;51.494;11.958;2022-08-19T16:47:30;6.97;;;6.00;;
7191;SDS011;3637;51.494;11.958;2022-08-19T16:50:32;7.27;;;6.10;;
7191;SDS011;3637;51.494;11.958;2022-08-19T16:53:35;6.90;;;6.00;;
7191;SDS011;3637;51.494;11.958;2022-08-19T16:56:37;6.80;;;6.07;;
7191;SDS011;3637;51.494;11.958;2022-08-19T16:59:41;6.63;;;5.90;;
7191;SDS011;3637;51.494;11.958;2022-08-19T17:02:43;6.40;;;5.80;;
7191;SDS011;3637;51.494;11.958;2022-08-19T17:05:45;6.87;;;5.70;;
7191;SDS011;3637;51.494;11.958;2022-08-19T17:08:49;8.13;;;6.47;;
7191;SDS011;3637;51.494;11.958;2022-08-19T17:11:53;6.70;;;5.70;;
7191;SDS011;3637;51.494;11.958;2022-08-19T17:14:56;8.40;;;6.50;;
7191;SDS011;3637;51.494;11.958;2022-08-19T17:17:58;6.90;;;6.17;;
7191;SDS011;3637;51.494;11.958;2022-08-19T17:21:00;6.93;;;6.23;;
7191;SDS011;3637;51.494;11.958;2022-08-19T17:24:03;7.57;;;6.40;;
7191;SDS011;3637;51.494;11.958;2022-08-19T17:27:07;9.63;;;7.93;;
7191;SDS011;3637;51.494;11.958;2022-08-19T17:30:11;11.13;;;8.37;;
7191;SDS011;3637;51.494;11.958;2022-08-19T17:33:13;11.17;;;8.57;;
7191;SDS011;3637;51.494;11.958;2022-08-19T17:36:15;7.63;;;6.73;;
7191;SDS011;3637;51.494;11.958;2022-08-19T17:39:17;8.03;;;6.90;;
7191;SDS011;3637;51.494;11.958;2022-08-19T17:42:19;8.23;;;6.90;;
7191;SDS011;3637;51.494;11.958;2022-08-19T17:45:23;7.53;;;6.17;;
7191;SDS011;3637;51.494;11.958;2022-08-19T17:48:24;6.90;;;6.13;;
7191;SDS011;3637;51.494;11.958;2022-08-19T17:51:37;8.93;;;6.17;;
7191;SDS011;3637;51.494;11.958;2022-08-19T17:54:41;7.40;;;6.60;;
7191;SDS011;3637;51.494;11.958;2022-08-19T17:57:43;7.27;;;6.07;;
7191;SDS011;3637;51.494;11.958;2022-08-19T18:00:46;8.03;;;5.97;;
7191;SDS011;3637;51.494;11.958;2022-08-19T18:03:48;7.67;;;6.83;;
7191;SDS011;3637;51.494;11.958;2022-08-19T18:06:50;6.67;;;5.97;;
7191;SDS011;3637;51.494;11.958;2022-08-19T18:09:52;8.60;;;7.17;;
7191;SDS011;3637;51.494;11.958;2022-08-19T18:12:54;7.03;;;6.33;;
7191;SDS011;3637;51.494;11.958;2022-08-19T18:15:57;6.67;;;6.03;;
7191;SDS011;3637;51.494;11.958;2022-08-19T18:18:59;6.63;;;5.93;;
7191;SDS011;3637;51.494;11.958;2022-08-19T18:22:01;7.33;;;6.00;;
7191;SDS011;3637;51.494;11.958;2022-08-19T18:25:04;7.23;;;6.53;;
7191;SDS011;3637;51.494;11.958;2022-08-19T18:28:08;6.60;;;5.90;;
7191;SDS011;3637;51.494;11.958;2022-08-19T18:31:11;6.77;;;5.77;;